EmailTwitter


Observations de surface / Québec / LFRQ

Régions: Québec | Canada | États-Unis | Europe | France | UK | Ailleurs
Station
Affichage
Infos & localisation pour LFRQ | Aide pour décoder les METARs

Observations prises le 2017-09-21 à 10H30 UTC à QUIMPER/PLUGUFFA, FR (LFRQ)

Etat du ciel: couvert.

Température: 15.0 Celsius

Point de rosée: 12.0 Celsius

Humidité relative: 82%

Vents: Nord-ouest à 15 km/h ou 8 noeuds.

Pression au niveau moyen de la mer: 101.70 kilopascals.

Visibilité horizontale: 6.21 milles terrestres ou 9.94 kilomètres.

Hauteur du plafond: 610 mètres ( 2000 pieds ).

Observation METAR:

LFRQ 211030Z AUTO 33008KT 300V360 9999 SCT012 BKN020 OVC100 15/12 Q1017 NOSIG=